createdAt,value
2019-05-25T00:00:54.986Z,13.59
2019-05-25T00:04:07.860Z,13.78
2019-05-25T00:07:02.171Z,13.70
2019-05-25T00:10:00.826Z,13.59
2019-05-25T00:12:58.207Z,13.53
2019-05-25T00:15:34.072Z,13.39
2019-05-25T00:21:52.020Z,13.18
2019-05-25T00:25:07.567Z,13.09
2019-05-25T00:27:45.932Z,13.09
2019-05-25T00:31:03.971Z,13.32
2019-05-25T00:33:42.142Z,13.01
2019-05-25T00:36:53.463Z,12.82
2019-05-25T00:39:34.285Z,12.65
2019-05-25T00:42:33.426Z,12.58
2019-05-25T00:45:56.394Z,12.78
2019-05-25T00:48:55.346Z,12.56
2019-05-25T00:51:53.933Z,12.54
2019-05-25T00:54:54.777Z,12.51
2019-05-25T00:57:46.735Z,12.47
2019-05-25T01:00:32.030Z,12.23
2019-05-25T01:03:34.995Z,12.00
2019-05-25T01:06:44.056Z,11.93
2019-05-25T01:09:50.511Z,12.07
2019-05-25T01:13:06.893Z,11.99
2019-05-25T01:15:52.973Z,11.96
2019-05-25T01:18:49.713Z,11.90
2019-05-25T01:21:41.940Z,11.99
2019-05-25T01:24:48.826Z,11.94
2019-05-25T01:27:59.515Z,11.69
2019-05-25T01:31:14.473Z,11.71
2019-05-25T01:34:49.009Z,11.78
2019-05-25T01:38:05.751Z,11.87
2019-05-25T01:44:20.222Z,11.81
2019-05-25T01:46:49.450Z,11.82
2019-05-25T01:49:18.510Z,11.72
2019-05-25T01:58:45.916Z,11.56
2019-05-25T02:01:14.817Z,11.40
2019-05-25T02:04:08.703Z,11.46
2019-05-25T02:06:45.278Z,11.45
2019-05-25T02:20:32.145Z,11.23
2019-05-25T02:23:00.872Z,11.23
2019-05-25T02:25:29.608Z,11.22
2019-05-25T02:27:58.343Z,11.22
2019-05-25T02:30:27.685Z,11.27
2019-05-25T02:32:56.539Z,11.13
2019-05-25T02:35:28.312Z,11.30
2019-05-25T02:37:57.980Z,11.27
2019-05-25T02:40:27.200Z,11.44
2019-05-25T02:42:56.007Z,11.61
2019-05-25T02:45:25.192Z,11.38
2019-05-25T02:47:53.920Z,11.62
2019-05-25T02:50:22.831Z,11.50
2019-05-25T02:52:51.549Z,11.50
2019-05-25T02:55:33.661Z,11.42
2019-05-25T02:57:50.998Z,11.18
2019-05-25T03:00:23.832Z,11.19
2019-05-25T03:02:52.733Z,11.40
2019-05-25T03:05:21.650Z,11.28
2019-05-25T03:07:51.223Z,11.29
2019-05-25T03:10:20.109Z,11.14
2019-05-25T03:12:49.276Z,11.19
2019-05-25T03:15:19.362Z,11.05
2019-05-25T03:17:48.106Z,10.98
2019-05-25T03:20:17.241Z,11.08
2019-05-25T03:22:45.989Z,11.07
2019-05-25T03:25:14.791Z,11.14
2019-05-25T03:27:43.600Z,11.01
2019-05-25T03:30:12.701Z,11.00
2019-05-25T03:32:41.498Z,11.02
2019-05-25T03:35:10.678Z,10.94
2019-05-25T03:37:39.500Z,10.92
2019-05-25T03:40:08.691Z,10.75
2019-05-25T03:42:37.582Z,10.77
2019-05-25T03:45:06.764Z,10.67
2019-05-25T03:47:35.589Z,10.88
2019-05-25T03:50:05.077Z,10.94
2019-05-25T03:52:33.874Z,10.84
2019-05-25T03:55:02.598Z,10.70
2019-05-25T03:57:31.326Z,10.76
2019-05-25T04:00:00.362Z,10.85
2019-05-25T04:02:29.255Z,10.77
2019-05-25T04:04:57.986Z,10.66
2019-05-25T04:07:26.729Z,10.77
2019-05-25T04:09:55.604Z,10.91
2019-05-25T04:12:24.337Z,10.73
2019-05-25T04:14:53.067Z,10.81
2019-05-25T04:17:21.838Z,10.93
2019-05-25T04:19:50.652Z,10.85
2019-05-25T04:22:19.418Z,10.93
2019-05-25T04:24:48.137Z,11.02
2019-05-25T04:27:16.884Z,11.09
2019-05-25T04:29:45.614Z,10.99
2019-05-25T04:32:14.729Z,11.12
2019-05-25T04:34:43.448Z,11.10
2019-05-25T04:37:12.213Z,11.15
2019-05-25T04:39:41.322Z,10.85
2019-05-25T04:42:10.107Z,11.02
2019-05-25T04:44:38.910Z,11.14
2019-05-25T04:47:07.797Z,11.26
2019-05-25T04:49:36.577Z,11.10
2019-05-25T04:52:05.437Z,11.20
2019-05-25T04:54:34.465Z,11.22
2019-05-25T04:57:03.617Z,11.24
2019-05-25T04:59:32.801Z,11.10
2019-05-25T05:02:01.562Z,11.04
2019-05-25T05:04:30.328Z,11.03
2019-05-25T05:06:59.147Z,11.15
2019-05-25T05:09:28.004Z,11.02
2019-05-25T05:11:56.797Z,11.10
2019-05-25T05:14:25.548Z,11.03
2019-05-25T05:16:54.288Z,11.02
2019-05-25T05:19:23.331Z,11.14
2019-05-25T05:21:52.157Z,11.13
2019-05-25T05:24:20.969Z,11.13
2019-05-25T05:26:55.769Z,11.11
2019-05-25T05:29:20.167Z,11.13
2019-05-25T05:31:48.957Z,11.23
2019-05-25T05:34:17.843Z,11.50
2019-05-25T05:36:48.049Z,11.42
2019-05-25T05:39:16.865Z,11.49
2019-05-25T05:41:48.232Z,11.29
2019-05-25T05:44:19.633Z,11.26
2019-05-25T05:46:50.396Z,11.63
2019-05-25T05:49:19.770Z,11.48
2019-05-25T05:51:50.654Z,11.42
2019-05-25T05:54:20.607Z,11.26
2019-05-25T05:56:49.544Z,11.48
2019-05-25T05:59:18.332Z,11.27
2019-05-25T06:01:47.095Z,11.12
2019-05-25T06:04:15.830Z,11.18
2019-05-25T06:06:44.666Z,11.20
2019-05-25T06:09:13.433Z,11.17
2019-05-25T06:11:42.168Z,11.21
2019-05-25T06:14:11.099Z,11.09
2019-05-25T06:16:39.989Z,11.05
2019-05-25T06:19:09.046Z,11.18
2019-05-25T06:21:38.345Z,11.12
2019-05-25T06:24:07.515Z,11.20
2019-05-25T06:26:36.445Z,11.21
2019-05-25T06:29:05.378Z,11.06
2019-05-25T06:31:34.273Z,11.13
2019-05-25T06:34:03.330Z,11.28
2019-05-25T06:36:32.290Z,11.28
2019-05-25T06:39:01.187Z,11.56
2019-05-25T06:41:30.192Z,11.31
2019-05-25T06:43:59.188Z,11.32
2019-05-25T06:46:29.139Z,11.39
2019-05-25T06:48:58.148Z,11.43
2019-05-25T06:51:27.173Z,11.45
2019-05-25T06:53:58.648Z,11.35
2019-05-25T06:56:27.909Z,11.37
2019-05-25T06:58:56.876Z,11.32
2019-05-25T07:01:25.604Z,11.34
2019-05-25T07:03:54.587Z,11.20
2019-05-25T07:06:23.417Z,11.20
2019-05-25T07:08:52.517Z,11.30
2019-05-25T07:11:21.601Z,11.26
2019-05-25T07:13:50.770Z,11.63
2019-05-25T07:16:19.589Z,11.58
2019-05-25T07:18:48.333Z,11.49
2019-05-25T07:21:17.160Z,11.64
2019-05-25T07:23:46.084Z,11.88
2019-05-25T07:26:14.941Z,11.79
2019-05-25T07:28:43.680Z,11.94
2019-05-25T07:31:12.409Z,11.98
2019-05-25T07:33:41.195Z,11.73
2019-05-25T07:36:10.020Z,12.07
2019-05-25T07:38:38.863Z,11.88
2019-05-25T07:41:07.616Z,12.03
2019-05-25T07:43:36.396Z,11.84
2019-05-25T07:46:05.345Z,12.10
2019-05-25T07:48:34.122Z,11.83
2019-05-25T07:51:02.938Z,12.07
2019-05-25T07:53:31.782Z,11.97
2019-05-25T07:56:00.608Z,12.28
2019-05-25T07:58:29.330Z,12.49
2019-05-25T08:00:58.631Z,12.28
2019-05-25T08:03:27.401Z,12.16
2019-05-25T08:05:56.133Z,12.25
2019-05-25T08:08:24.927Z,12.62
2019-05-25T08:10:53.831Z,12.11
2019-05-25T08:13:22.639Z,12.37
2019-05-25T08:15:51.403Z,12.43
2019-05-25T08:18:20.756Z,12.54
2019-05-25T08:20:49.616Z,12.95
2019-05-25T08:23:18.354Z,12.85
2019-05-25T08:25:47.186Z,12.65
2019-05-25T08:28:29.850Z,12.61
2019-05-25T08:30:46.428Z,12.42
2019-05-25T08:33:15.125Z,12.57
2019-05-25T08:35:46.456Z,12.49
2019-05-25T08:38:14.704Z,12.48
2019-05-25T08:41:11.887Z,12.38
2019-05-25T08:43:40.679Z,12.57
2019-05-25T08:46:09.715Z,12.72
2019-05-25T08:48:38.458Z,12.86
2019-05-25T08:51:07.217Z,12.89
2019-05-25T08:53:41.280Z,12.84
2019-05-25T08:56:06.621Z,12.52
2019-05-25T08:58:47.479Z,12.74
2019-05-25T09:01:05.878Z,12.73
2019-05-25T09:03:34.592Z,12.78
2019-05-25T09:06:03.521Z,12.72
2019-05-25T09:08:32.230Z,12.79
2019-05-25T09:11:01.108Z,12.67
2019-05-25T09:13:29.833Z,13.03
2019-05-25T09:15:58.566Z,12.86
2019-05-25T09:18:27.283Z,12.88
2019-05-25T09:20:56.045Z,12.79
2019-05-25T09:23:24.841Z,13.08
2019-05-25T09:25:53.583Z,12.97
2019-05-25T09:28:22.385Z,12.93
2019-05-25T09:30:51.186Z,13.23
2019-05-25T09:33:19.913Z,13.47
2019-05-25T09:35:48.924Z,13.60
2019-05-25T09:38:17.686Z,13.60
2019-05-25T09:40:46.413Z,13.68
2019-05-25T09:43:15.151Z,13.38
2019-05-25T09:45:43.954Z,13.34
2019-05-25T09:48:12.680Z,13.46
2019-05-25T09:50:41.412Z,13.48
2019-05-25T09:53:10.372Z,13.07
2019-05-25T09:55:39.398Z,13.39
2019-05-25T09:58:08.224Z,13.66
2019-05-25T10:00:40.208Z,13.47
2019-05-25T10:03:07.807Z,14.07
2019-05-25T10:05:36.756Z,13.98
2019-05-25T10:08:05.814Z,14.09
2019-05-25T10:10:34.758Z,14.20
2019-05-25T10:13:03.751Z,14.22
2019-05-25T10:15:32.602Z,14.38
2019-05-25T10:18:01.480Z,14.30
2019-05-25T10:20:30.191Z,13.85
2019-05-25T10:22:58.938Z,13.96
2019-05-25T10:25:27.760Z,14.01
2019-05-25T10:27:56.596Z,13.82
2019-05-25T10:30:25.485Z,13.37
2019-05-25T10:32:54.250Z,13.32
2019-05-25T10:35:23.003Z,13.71
2019-05-25T10:37:51.748Z,14.11
2019-05-25T10:40:20.822Z,14.13
2019-05-25T10:42:49.565Z,14.13
2019-05-25T10:45:18.527Z,13.96
2019-05-25T10:47:47.356Z,14.03
2019-05-25T10:50:16.696Z,14.19
2019-05-25T10:52:45.531Z,14.01
2019-05-25T10:55:15.088Z,14.06
2019-05-25T10:57:43.876Z,13.82
2019-05-25T11:00:13.258Z,13.60
2019-05-25T11:02:42.152Z,13.36
2019-05-25T11:05:11.353Z,13.39
2019-05-25T11:07:40.096Z,13.35
2019-05-25T11:10:09.444Z,13.49
2019-05-25T11:12:38.351Z,13.43
2019-05-25T11:15:07.797Z,13.32
2019-05-25T11:17:37.500Z,13.26
2019-05-25T11:20:06.964Z,13.38
2019-05-25T11:22:35.781Z,13.33
2019-05-25T11:25:08.234Z,13.33
2019-05-25T11:27:37.028Z,13.38
2019-05-25T11:30:09.596Z,13.49
2019-05-25T11:32:37.691Z,13.84
2019-05-25T11:35:07.189Z,13.55
2019-05-25T11:37:35.918Z,13.37
2019-05-25T11:40:05.696Z,13.62
2019-05-25T11:42:34.415Z,13.64
2019-05-25T11:45:03.297Z,13.33
2019-05-25T11:47:32.031Z,13.79
2019-05-25T11:50:00.736Z,13.87
2019-05-25T11:52:29.524Z,13.75
2019-05-25T11:54:58.232Z,13.58
2019-05-25T11:57:27.122Z,13.70
2019-05-25T11:59:55.830Z,13.67
2019-05-25T12:02:24.666Z,13.81
2019-05-25T12:04:53.353Z,13.88
2019-05-25T12:07:22.103Z,13.72
2019-05-25T12:09:50.936Z,13.73
2019-05-25T12:12:19.710Z,13.67
2019-05-25T12:14:48.421Z,13.82
2019-05-25T12:17:17.245Z,13.98
2019-05-25T12:19:45.984Z,14.01
2019-05-25T12:22:14.908Z,14.27
2019-05-25T12:24:43.821Z,14.31
2019-05-25T12:27:12.616Z,14.47
2019-05-25T12:29:41.690Z,14.40
2019-05-25T12:32:10.646Z,14.41
2019-05-25T12:34:39.603Z,14.69
2019-05-25T12:37:08.317Z,14.99
2019-05-25T12:39:37.248Z,14.52
2019-05-25T12:42:06.309Z,14.71
2019-05-25T12:44:35.113Z,14.33
2019-05-25T12:47:03.967Z,14.17
2019-05-25T12:49:49.566Z,14.34
2019-05-25T12:52:03.264Z,13.87
2019-05-25T12:54:31.996Z,14.55
2019-05-25T12:57:02.815Z,14.69
2019-05-25T12:59:31.391Z,14.93
2019-05-25T13:02:00.121Z,15.37
2019-05-25T13:04:28.942Z,15.44
2019-05-25T13:06:57.748Z,15.35
2019-05-25T13:09:26.481Z,15.39
2019-05-25T13:11:55.247Z,15.51
2019-05-25T13:14:23.998Z,15.64
2019-05-25T13:16:52.736Z,16.06
2019-05-25T13:19:21.471Z,16.00
2019-05-25T13:21:50.181Z,15.39
2019-05-25T13:24:19.373Z,15.00
2019-05-25T13:26:48.085Z,15.98
2019-05-25T13:29:16.981Z,15.17
2019-05-25T13:31:45.721Z,15.12
2019-05-25T13:34:14.460Z,15.33
2019-05-25T13:36:43.195Z,15.22
2019-05-25T13:39:11.929Z,15.07
2019-05-25T13:41:40.801Z,15.40
2019-05-25T13:44:09.528Z,15.46
2019-05-25T13:46:38.393Z,15.39
2019-05-25T13:49:07.130Z,15.59
2019-05-25T13:51:35.854Z,15.89
2019-05-25T13:54:04.679Z,16.05
2019-05-25T13:56:33.404Z,16.72
2019-05-25T13:59:02.231Z,16.43
2019-05-25T14:01:30.945Z,15.92
2019-05-25T14:03:59.765Z,16.02
2019-05-25T14:06:28.498Z,15.58
2019-05-25T14:08:57.289Z,15.59
2019-05-25T14:11:25.964Z,15.87
2019-05-25T14:13:54.734Z,16.17
2019-05-25T14:16:23.539Z,15.68
2019-05-25T14:18:52.288Z,16.21
2019-05-25T14:21:21.008Z,16.10
2019-05-25T14:23:49.738Z,15.60
2019-05-25T14:26:18.468Z,15.44
2019-05-25T14:28:47.222Z,15.60
2019-05-25T14:31:16.227Z,15.50
2019-05-25T14:33:44.975Z,15.73
2019-05-25T14:36:13.772Z,15.97
2019-05-25T14:38:42.589Z,15.69
2019-05-25T14:41:11.295Z,15.99
2019-05-25T14:43:40.307Z,16.22
2019-05-25T14:46:09.087Z,15.83
2019-05-25T14:48:37.800Z,16.01
2019-05-25T14:51:06.626Z,16.17
2019-05-25T14:53:35.346Z,16.32
2019-05-25T14:56:04.281Z,16.41
2019-05-25T14:58:33.020Z,16.18
2019-05-25T15:01:01.748Z,16.18
2019-05-25T15:03:30.525Z,16.03
2019-05-25T15:05:59.289Z,15.63
2019-05-25T15:08:28.018Z,15.87
2019-05-25T15:10:56.908Z,15.86
2019-05-25T15:13:25.634Z,16.09
2019-05-25T15:15:55.426Z,16.02
2019-05-25T15:18:24.437Z,15.90
2019-05-25T15:20:53.186Z,15.72
2019-05-25T15:23:22.072Z,15.87
2019-05-25T15:25:50.884Z,16.01
2019-05-25T15:28:19.780Z,16.11
2019-05-25T15:30:48.687Z,16.25
2019-05-25T15:33:17.500Z,15.92
2019-05-25T15:35:46.650Z,15.93
2019-05-25T15:38:16.844Z,15.57
2019-05-25T15:40:45.679Z,15.49
2019-05-25T15:43:14.578Z,15.70
2019-05-25T15:45:43.474Z,16.02
2019-05-25T15:48:12.475Z,16.13
2019-05-25T15:50:41.473Z,15.90
2019-05-25T15:53:10.439Z,16.01
2019-05-25T15:55:39.323Z,15.83
2019-05-25T15:58:08.287Z,16.13
2019-05-25T16:00:47.843Z,16.27
2019-05-25T16:03:17.709Z,16.36
2019-05-25T16:05:47.680Z,16.29
2019-05-25T16:08:17.740Z,16.34
2019-05-25T16:10:47.096Z,16.28
2019-05-25T16:13:16.064Z,15.97
2019-05-25T16:15:44.997Z,16.01
2019-05-25T16:18:15.175Z,16.07
2019-05-25T16:20:44.091Z,16.19
2019-05-25T16:23:13.015Z,16.16
2019-05-25T16:25:41.964Z,16.53
2019-05-25T16:28:11.262Z,16.66
2019-05-25T16:30:40.177Z,16.90
2019-05-25T16:33:13.180Z,16.75
2019-05-25T16:35:40.147Z,16.74
2019-05-25T16:38:09.196Z,16.62
2019-05-25T16:40:38.233Z,16.42
2019-05-25T16:43:07.172Z,16.35
2019-05-25T16:45:36.284Z,16.34
2019-05-25T16:48:05.186Z,16.85
2019-05-25T16:50:34.317Z,16.64
2019-05-25T16:53:03.296Z,16.72
2019-05-25T16:55:32.201Z,16.69
2019-05-25T16:58:01.538Z,16.08
2019-05-25T17:00:30.994Z,16.14
2019-05-25T17:03:00.629Z,16.14
2019-05-25T17:05:29.962Z,16.27
2019-05-25T17:07:58.898Z,16.21
2019-05-25T17:10:28.160Z,16.03
2019-05-25T17:12:56.984Z,15.95
2019-05-25T17:15:25.837Z,16.18
2019-05-25T17:17:54.743Z,16.29
2019-05-25T17:20:23.710Z,16.30
2019-05-25T17:22:52.655Z,16.22
2019-05-25T17:25:21.456Z,15.90
2019-05-25T17:27:50.429Z,15.97
2019-05-25T17:30:35.248Z,15.78
2019-05-25T17:33:04.267Z,15.68
2019-05-25T17:35:33.236Z,15.72
2019-05-25T17:38:02.163Z,15.72
2019-05-25T17:40:31.144Z,15.63
2019-05-25T17:43:00.117Z,15.64
2019-05-25T17:45:28.978Z,15.54
2019-05-25T17:47:58.513Z,15.46
2019-05-25T17:50:27.485Z,15.49
2019-05-25T17:52:56.418Z,15.48
2019-05-25T17:55:25.448Z,15.25
2019-05-25T17:57:54.373Z,15.11
2019-05-25T18:00:45.592Z,15.08
2019-05-25T18:03:14.884Z,15.13
2019-05-25T18:05:43.805Z,15.02
2019-05-25T18:08:13.023Z,15.12
2019-05-25T18:10:52.905Z,14.91
2019-05-25T18:13:12.582Z,14.96
2019-05-25T18:15:41.616Z,14.99
2019-05-25T18:18:11.117Z,14.66
2019-05-25T18:20:40.016Z,14.72
2019-05-25T18:23:09.113Z,14.46
2019-05-25T18:25:38.087Z,14.66
2019-05-25T18:28:07.615Z,14.57
2019-05-25T18:30:36.932Z,14.28
2019-05-25T18:33:05.998Z,14.24
2019-05-25T18:35:35.128Z,14.26
2019-05-25T18:38:04.251Z,14.21
2019-05-25T18:40:33.164Z,14.17
2019-05-25T18:43:02.206Z,14.04
2019-05-25T18:45:32.593Z,14.09
2019-05-25T18:48:01.415Z,14.07
2019-05-25T18:50:30.562Z,13.92
2019-05-25T18:52:59.303Z,13.95
2019-05-25T18:55:28.235Z,13.79
2019-05-25T18:57:56.946Z,13.45
2019-05-25T19:00:26.038Z,13.53
2019-05-25T19:02:55.507Z,13.20
2019-05-25T19:05:24.455Z,13.06
2019-05-25T19:07:53.281Z,12.90
2019-05-25T19:10:22.192Z,12.99
2019-05-25T19:12:51.064Z,12.94
2019-05-25T19:15:20.236Z,12.83
2019-05-25T19:17:48.976Z,12.92
2019-05-25T19:20:21.017Z,12.92
2019-05-25T19:22:48.734Z,12.76
2019-05-25T19:25:19.359Z,12.67
2019-05-25T19:27:48.067Z,12.97
2019-05-25T19:30:17.489Z,12.86
2019-05-25T19:32:46.211Z,12.71
2019-05-25T19:35:15.506Z,12.54
2019-05-25T19:37:44.650Z,12.53
2019-05-25T19:40:14.042Z,12.51
2019-05-25T19:42:42.871Z,12.35
2019-05-25T19:45:12.119Z,12.14
2019-05-25T19:47:40.975Z,12.31
2019-05-25T19:50:10.022Z,12.43
2019-05-25T19:52:39.266Z,12.33
2019-05-25T19:55:08.820Z,12.09
2019-05-25T19:57:37.527Z,12.02
2019-05-25T20:00:07.073Z,11.90
2019-05-25T20:02:35.946Z,11.80
2019-05-25T20:05:15.823Z,11.78
2019-05-25T20:07:35.675Z,11.43
2019-05-25T20:10:04.981Z,11.35
2019-05-25T20:12:33.709Z,11.35
2019-05-25T20:15:02.464Z,11.20
2019-05-25T20:17:31.253Z,10.71
2019-05-25T20:20:00.072Z,10.99
2019-05-25T20:22:28.844Z,11.23
2019-05-25T20:24:57.687Z,11.27
2019-05-25T20:27:26.414Z,10.94
2019-05-25T20:29:55.242Z,10.96
2019-05-25T20:32:24.036Z,11.31
2019-05-25T20:34:52.940Z,11.24
2019-05-25T20:37:21.723Z,11.24
2019-05-25T20:39:50.405Z,11.09
2019-05-25T20:42:19.144Z,11.03
2019-05-25T20:44:47.953Z,10.99
2019-05-25T20:47:16.693Z,10.90
2019-05-25T20:49:45.525Z,10.83
2019-05-25T20:52:15.467Z,10.71
2019-05-25T20:54:44.348Z,10.60
2019-05-25T20:57:13.646Z,10.45
2019-05-25T20:59:42.442Z,10.14
2019-05-25T21:02:11.176Z,10.24
2019-05-25T21:04:39.997Z,9.97
2019-05-25T21:07:08.733Z,9.78
2019-05-25T21:09:37.448Z,9.72
2019-05-25T21:12:06.262Z,9.66
2019-05-25T21:14:34.976Z,9.68
2019-05-25T21:17:04.035Z,9.73
2019-05-25T21:19:32.771Z,9.73
2019-05-25T21:22:01.611Z,9.63
2019-05-25T21:24:30.351Z,9.69
2019-05-25T21:26:59.145Z,9.62
2019-05-25T21:29:28.014Z,9.58
2019-05-25T21:31:56.823Z,9.60
2019-05-25T21:34:25.546Z,9.56
2019-05-25T21:36:54.278Z,9.50
2019-05-25T21:39:23.007Z,9.47
2019-05-25T21:41:51.739Z,9.44
2019-05-25T21:44:20.740Z,9.47
2019-05-25T21:46:49.519Z,9.45
2019-05-25T21:49:18.238Z,9.32
2019-05-25T21:51:46.992Z,9.11
2019-05-25T21:54:15.710Z,9.03
2019-05-25T21:56:44.457Z,8.97
2019-05-25T21:59:13.207Z,8.74
2019-05-25T22:01:41.951Z,8.88
2019-05-25T22:04:10.899Z,8.88
2019-05-25T22:06:39.604Z,8.91
2019-05-25T22:09:08.679Z,8.92
2019-05-25T22:11:37.650Z,8.97
2019-05-25T22:14:06.435Z,8.94
2019-05-25T22:16:35.137Z,8.76
2019-05-25T22:19:03.896Z,8.77
2019-05-25T22:21:32.632Z,8.71
2019-05-25T22:24:01.459Z,8.79
2019-05-25T22:26:30.328Z,8.91
2019-05-25T22:28:59.071Z,9.07
2019-05-25T22:31:27.798Z,8.90
2019-05-25T22:33:59.279Z,8.81
2019-05-25T22:36:39.061Z,8.65
2019-05-25T22:38:57.447Z,8.59
2019-05-25T22:41:26.175Z,8.64
2019-05-25T22:43:54.921Z,8.55
2019-05-25T22:46:23.645Z,8.49
2019-05-25T22:48:52.406Z,8.40
2019-05-25T22:51:21.162Z,8.38
2019-05-25T22:53:49.903Z,8.48
2019-05-25T22:56:18.789Z,8.39
2019-05-25T22:58:47.538Z,8.22
2019-05-25T23:01:16.254Z,8.17
2019-05-25T23:03:45.072Z,8.20
2019-05-25T23:06:13.851Z,8.24
2019-05-25T23:08:42.603Z,8.20
2019-05-25T23:11:11.320Z,8.01
2019-05-25T23:13:40.323Z,7.99
2019-05-25T23:16:12.328Z,7.92
2019-05-25T23:18:41.067Z,7.89
2019-05-25T23:21:09.803Z,8.03
2019-05-25T23:23:38.533Z,8.03
2019-05-25T23:26:07.280Z,8.00
2019-05-25T23:28:36.006Z,8.05
2019-05-25T23:31:04.797Z,7.93
2019-05-25T23:33:33.512Z,7.92
2019-05-25T23:36:02.265Z,7.79
2019-05-25T23:38:30.975Z,7.81
2019-05-25T23:40:59.779Z,7.82
2019-05-25T23:43:28.741Z,7.78
2019-05-25T23:45:57.479Z,7.72
2019-05-25T23:48:26.206Z,7.71
2019-05-25T23:50:54.937Z,7.66
2019-05-25T23:53:23.660Z,7.68
2019-05-25T23:55:52.676Z,7.63
2019-05-25T23:58:21.690Z,7.76
